sensor_id;sensor_type;location;lat;lon;timestamp;P1;durP1;ratioP1;P2;durP2;ratioP2
7021;SDS011;3552;42.664;23.406;2022-07-25T00:01:08;13.90;;;11.37;;
7021;SDS011;3552;42.664;23.406;2022-07-25T00:03:36;12.77;;;11.53;;
7021;SDS011;3552;42.664;23.406;2022-07-25T00:06:05;13.53;;;11.47;;
7021;SDS011;3552;42.664;23.406;2022-07-25T00:08:32;13.70;;;12.10;;
7021;SDS011;3552;42.664;23.406;2022-07-25T00:11:01;13.17;;;11.73;;
7021;SDS011;3552;42.664;23.406;2022-07-25T00:13:30;12.97;;;11.67;;
7021;SDS011;3552;42.664;23.406;2022-07-25T00:15:59;14.30;;;11.53;;
7021;SDS011;3552;42.664;23.406;2022-07-25T00:18:26;12.87;;;11.57;;
7021;SDS011;3552;42.664;23.406;2022-07-25T00:20:54;12.83;;;11.17;;
7021;SDS011;3552;42.664;23.406;2022-07-25T00:23:22;12.87;;;11.57;;
7021;SDS011;3552;42.664;23.406;2022-07-25T00:25:50;12.83;;;11.53;;
7021;SDS011;3552;42.664;23.406;2022-07-25T00:28:18;13.27;;;11.97;;
7021;SDS011;3552;42.664;23.406;2022-07-25T00:30:47;14.60;;;11.63;;
7021;SDS011;3552;42.664;23.406;2022-07-25T00:33:14;13.23;;;11.87;;
7021;SDS011;3552;42.664;23.406;2022-07-25T00:35:41;13.03;;;11.67;;
7021;SDS011;3552;42.664;23.406;2022-07-25T00:38:08;14.23;;;11.67;;
7021;SDS011;3552;42.664;23.406;2022-07-25T00:40:35;13.17;;;11.87;;
7021;SDS011;3552;42.664;23.406;2022-07-25T00:43:03;14.93;;;13.30;;
7021;SDS011;3552;42.664;23.406;2022-07-25T00:45:30;12.50;;;11.27;;
7021;SDS011;3552;42.664;23.406;2022-07-25T00:47:58;13.13;;;11.73;;
7021;SDS011;3552;42.664;23.406;2022-07-25T00:50:26;12.87;;;11.50;;
7021;SDS011;3552;42.664;23.406;2022-07-25T00:52:55;13.23;;;11.80;;
7021;SDS011;3552;42.664;23.406;2022-07-25T00:55:22;13.90;;;12.50;;
7021;SDS011;3552;42.664;23.406;2022-07-25T00:57:50;13.37;;;11.87;;
7021;SDS011;3552;42.664;23.406;2022-07-25T01:00:19;16.33;;;12.83;;
7021;SDS011;3552;42.664;23.406;2022-07-25T01:02:46;12.93;;;11.33;;
7021;SDS011;3552;42.664;23.406;2022-07-25T01:05:15;14.23;;;12.20;;
7021;SDS011;3552;42.664;23.406;2022-07-25T01:07:42;13.60;;;12.17;;
7021;SDS011;3552;42.664;23.406;2022-07-25T01:10:09;12.77;;;11.47;;
7021;SDS011;3552;42.664;23.406;2022-07-25T01:12:43;14.10;;;12.13;;
7021;SDS011;3552;42.664;23.406;2022-07-25T01:15:12;14.73;;;12.37;;
7021;SDS011;3552;42.664;23.406;2022-07-25T01:17:39;13.50;;;12.10;;
7021;SDS011;3552;42.664;23.406;2022-07-25T01:20:12;13.23;;;11.87;;
7021;SDS011;3552;42.664;23.406;2022-07-25T01:22:40;13.90;;;12.03;;
7021;SDS011;3552;42.664;23.406;2022-07-25T01:25:08;14.03;;;12.40;;
7021;SDS011;3552;42.664;23.406;2022-07-25T01:27:35;13.83;;;12.37;;
7021;SDS011;3552;42.664;23.406;2022-07-25T01:30:03;13.37;;;11.73;;
7021;SDS011;3552;42.664;23.406;2022-07-25T01:32:31;12.63;;;11.37;;
7021;SDS011;3552;42.664;23.406;2022-07-25T01:34:58;16.10;;;12.00;;
7021;SDS011;3552;42.664;23.406;2022-07-25T01:37:27;14.80;;;13.00;;
7021;SDS011;3552;42.664;23.406;2022-07-25T01:39:54;15.17;;;13.00;;
7021;SDS011;3552;42.664;23.406;2022-07-25T01:42:23;16.27;;;12.23;;
7021;SDS011;3552;42.664;23.406;2022-07-25T01:44:50;14.03;;;12.70;;
7021;SDS011;3552;42.664;23.406;2022-07-25T01:47:17;15.10;;;13.33;;
7021;SDS011;3552;42.664;23.406;2022-07-25T01:49:44;15.30;;;12.77;;
7021;SDS011;3552;42.664;23.406;2022-07-25T01:52:12;14.30;;;12.90;;
7021;SDS011;3552;42.664;23.406;2022-07-25T01:54:41;14.70;;;12.70;;
7021;SDS011;3552;42.664;23.406;2022-07-25T01:57:08;13.97;;;11.97;;
7021;SDS011;3552;42.664;23.406;2022-07-25T01:59:35;15.47;;;12.53;;
7021;SDS011;3552;42.664;23.406;2022-07-25T02:02:04;15.73;;;13.47;;
7021;SDS011;3552;42.664;23.406;2022-07-25T02:04:32;16.70;;;13.30;;
7021;SDS011;3552;42.664;23.406;2022-07-25T02:06:59;14.20;;;12.73;;
7021;SDS011;3552;42.664;23.406;2022-07-25T02:09:29;16.20;;;13.00;;
7021;SDS011;3552;42.664;23.406;2022-07-25T02:11:58;16.17;;;13.83;;
7021;SDS011;3552;42.664;23.406;2022-07-25T02:14:25;16.23;;;13.23;;
7021;SDS011;3552;42.664;23.406;2022-07-25T02:16:51;16.13;;;14.17;;
7021;SDS011;3552;42.664;23.406;2022-07-25T02:19:19;13.83;;;12.43;;
7021;SDS011;3552;42.664;23.406;2022-07-25T02:21:47;14.93;;;13.20;;
7021;SDS011;3552;42.664;23.406;2022-07-25T02:24:14;14.73;;;13.17;;
7021;SDS011;3552;42.664;23.406;2022-07-25T02:26:41;15.87;;;13.60;;
7021;SDS011;3552;42.664;23.406;2022-07-25T02:29:10;16.17;;;13.43;;
7021;SDS011;3552;42.664;23.406;2022-07-25T02:31:37;16.23;;;14.40;;
7021;SDS011;3552;42.664;23.406;2022-07-25T02:34:04;15.40;;;13.73;;
7021;SDS011;3552;42.664;23.406;2022-07-25T02:36:31;15.10;;;13.57;;
7021;SDS011;3552;42.664;23.406;2022-07-25T02:38:59;16.23;;;13.40;;
7021;SDS011;3552;42.664;23.406;2022-07-25T02:41:26;14.30;;;12.80;;
7021;SDS011;3552;42.664;23.406;2022-07-25T02:43:53;16.60;;;13.33;;
7021;SDS011;3552;42.664;23.406;2022-07-25T02:46:23;15.90;;;13.37;;
7021;SDS011;3552;42.664;23.406;2022-07-25T02:48:51;15.77;;;14.10;;
7021;SDS011;3552;42.664;23.406;2022-07-25T02:51:18;18.13;;;13.77;;
7021;SDS011;3552;42.664;23.406;2022-07-25T02:53:45;14.57;;;12.93;;
7021;SDS011;3552;42.664;23.406;2022-07-25T02:56:12;15.30;;;13.70;;
7021;SDS011;3552;42.664;23.406;2022-07-25T02:58:40;14.53;;;13.13;;
7021;SDS011;3552;42.664;23.406;2022-07-25T03:01:07;14.70;;;13.17;;
7021;SDS011;3552;42.664;23.406;2022-07-25T03:03:36;14.53;;;13.13;;
7021;SDS011;3552;42.664;23.406;2022-07-25T03:06:03;15.17;;;13.50;;
7021;SDS011;3552;42.664;23.406;2022-07-25T03:08:32;15.53;;;13.50;;
7021;SDS011;3552;42.664;23.406;2022-07-25T03:10:59;16.97;;;12.97;;
7021;SDS011;3552;42.664;23.406;2022-07-25T03:13:26;15.20;;;13.67;;
7021;SDS011;3552;42.664;23.406;2022-07-25T03:15:54;19.37;;;14.10;;
7021;SDS011;3552;42.664;23.406;2022-07-25T03:18:21;15.40;;;12.83;;
7021;SDS011;3552;42.664;23.406;2022-07-25T03:20:50;21.43;;;13.33;;
7021;SDS011;3552;42.664;23.406;2022-07-25T03:23:17;15.27;;;13.67;;
7021;SDS011;3552;42.664;23.406;2022-07-25T03:25:44;16.03;;;13.93;;
7021;SDS011;3552;42.664;23.406;2022-07-25T03:28:11;16.03;;;14.30;;
7021;SDS011;3552;42.664;23.406;2022-07-25T03:30:39;15.17;;;13.63;;
7021;SDS011;3552;42.664;23.406;2022-07-25T03:33:06;14.43;;;12.97;;
7021;SDS011;3552;42.664;23.406;2022-07-25T03:35:36;17.73;;;14.17;;
7021;SDS011;3552;42.664;23.406;2022-07-25T03:38:06;16.23;;;14.40;;
7021;SDS011;3552;42.664;23.406;2022-07-25T03:40:33;15.43;;;13.83;;
7021;SDS011;3552;42.664;23.406;2022-07-25T03:43:01;17.00;;;14.07;;
7021;SDS011;3552;42.664;23.406;2022-07-25T03:45:28;19.27;;;13.93;;
7021;SDS011;3552;42.664;23.406;2022-07-25T03:47:55;15.70;;;14.10;;
7021;SDS011;3552;42.664;23.406;2022-07-25T03:50:23;18.27;;;14.07;;
7021;SDS011;3552;42.664;23.406;2022-07-25T03:52:50;18.43;;;13.97;;
7021;SDS011;3552;42.664;23.406;2022-07-25T03:55:18;19.57;;;14.53;;
7021;SDS011;3552;42.664;23.406;2022-07-25T03:57:45;23.90;;;14.90;;
7021;SDS011;3552;42.664;23.406;2022-07-25T04:00:13;25.60;;;14.77;;
7021;SDS011;3552;42.664;23.406;2022-07-25T04:02:41;24.67;;;14.80;;
7021;SDS011;3552;42.664;23.406;2022-07-25T04:05:08;26.00;;;15.13;;
7021;SDS011;3552;42.664;23.406;2022-07-25T04:07:36;18.50;;;13.97;;
7021;SDS011;3552;42.664;23.406;2022-07-25T04:10:05;18.77;;;14.10;;
7021;SDS011;3552;42.664;23.406;2022-07-25T04:12:36;16.33;;;13.13;;
7021;SDS011;3552;42.664;23.406;2022-07-25T04:15:03;14.47;;;12.00;;
7021;SDS011;3552;42.664;23.406;2022-07-25T04:17:32;15.07;;;12.27;;
7021;SDS011;3552;42.664;23.406;2022-07-25T04:20:00;16.10;;;11.80;;
7021;SDS011;3552;42.664;23.406;2022-07-25T04:22:28;17.17;;;12.30;;
7021;SDS011;3552;42.664;23.406;2022-07-25T04:24:57;16.40;;;11.70;;
7021;SDS011;3552;42.664;23.406;2022-07-25T04:27:25;11.80;;;10.20;;
7021;SDS011;3552;42.664;23.406;2022-07-25T04:29:53;12.43;;;9.73;;
7021;SDS011;3552;42.664;23.406;2022-07-25T04:32:23;12.60;;;9.37;;
7021;SDS011;3552;42.664;23.406;2022-07-25T04:34:50;12.17;;;9.20;;
7021;SDS011;3552;42.664;23.406;2022-07-25T04:37:19;10.20;;;8.80;;
7021;SDS011;3552;42.664;23.406;2022-07-25T04:39:46;14.73;;;9.17;;
7021;SDS011;3552;42.664;23.406;2022-07-25T04:42:13;16.40;;;9.13;;
7021;SDS011;3552;42.664;23.406;2022-07-25T04:44:41;13.00;;;8.67;;
7021;SDS011;3552;42.664;23.406;2022-07-25T04:47:10;10.03;;;8.23;;
7021;SDS011;3552;42.664;23.406;2022-07-25T04:49:36;10.87;;;8.60;;
7021;SDS011;3552;42.664;23.406;2022-07-25T04:52:04;10.43;;;8.27;;
7021;SDS011;3552;42.664;23.406;2022-07-25T04:54:31;12.83;;;8.27;;
7021;SDS011;3552;42.664;23.406;2022-07-25T04:56:59;9.80;;;8.50;;
7021;SDS011;3552;42.664;23.406;2022-07-25T04:59:28;10.73;;;8.43;;
7021;SDS011;3552;42.664;23.406;2022-07-25T05:01:56;11.10;;;8.70;;
7021;SDS011;3552;42.664;23.406;2022-07-25T05:04:25;11.67;;;9.30;;
7021;SDS011;3552;42.664;23.406;2022-07-25T05:06:52;14.57;;;10.07;;
7021;SDS011;3552;42.664;23.406;2022-07-25T05:09:20;13.93;;;8.20;;
7021;SDS011;3552;42.664;23.406;2022-07-25T05:11:47;16.03;;;8.50;;
7021;SDS011;3552;42.664;23.406;2022-07-25T05:14:15;9.23;;;7.57;;
7021;SDS011;3552;42.664;23.406;2022-07-25T05:16:43;10.90;;;8.53;;
7021;SDS011;3552;42.664;23.406;2022-07-25T05:19:11;11.73;;;8.17;;
7021;SDS011;3552;42.664;23.406;2022-07-25T05:21:40;11.47;;;8.37;;
7021;SDS011;3552;42.664;23.406;2022-07-25T05:24:07;15.30;;;8.37;;
7021;SDS011;3552;42.664;23.406;2022-07-25T05:26:34;10.83;;;7.87;;
7021;SDS011;3552;42.664;23.406;2022-07-25T05:29:02;13.60;;;7.97;;
7021;SDS011;3552;42.664;23.406;2022-07-25T05:31:29;9.37;;;7.97;;
7021;SDS011;3552;42.664;23.406;2022-07-25T05:33:57;10.43;;;7.23;;
7021;SDS011;3552;42.664;23.406;2022-07-25T05:36:25;8.60;;;7.40;;
7021;SDS011;3552;42.664;23.406;2022-07-25T05:38:54;8.93;;;7.70;;
7021;SDS011;3552;42.664;23.406;2022-07-25T05:41:22;12.10;;;8.10;;
7021;SDS011;3552;42.664;23.406;2022-07-25T05:43:49;10.67;;;7.70;;
7021;SDS011;3552;42.664;23.406;2022-07-25T05:46:16;10.13;;;7.50;;
7021;SDS011;3552;42.664;23.406;2022-07-25T05:48:44;11.40;;;7.80;;
7021;SDS011;3552;42.664;23.406;2022-07-25T05:51:11;8.77;;;7.63;;
7021;SDS011;3552;42.664;23.406;2022-07-25T05:53:38;11.27;;;7.50;;
7021;SDS011;3552;42.664;23.406;2022-07-25T05:56:07;12.47;;;7.93;;
7021;SDS011;3552;42.664;23.406;2022-07-25T05:58:34;11.97;;;7.90;;
7021;SDS011;3552;42.664;23.406;2022-07-25T06:01:04;8.47;;;7.33;;
7021;SDS011;3552;42.664;23.406;2022-07-25T06:03:33;9.00;;;7.40;;
7021;SDS011;3552;42.664;23.406;2022-07-25T06:06:00;9.93;;;7.53;;
7021;SDS011;3552;42.664;23.406;2022-07-25T06:08:27;12.23;;;8.03;;
7021;SDS011;3552;42.664;23.406;2022-07-25T06:10:56;10.47;;;7.17;;
7021;SDS011;3552;42.664;23.406;2022-07-25T06:13:25;11.43;;;8.10;;
7021;SDS011;3552;42.664;23.406;2022-07-25T06:15:52;9.53;;;7.60;;
7021;SDS011;3552;42.664;23.406;2022-07-25T06:18:20;8.30;;;7.40;;
7021;SDS011;3552;42.664;23.406;2022-07-25T06:20:47;11.83;;;7.77;;
7021;SDS011;3552;42.664;23.406;2022-07-25T06:23:14;8.20;;;7.50;;
7021;SDS011;3552;42.664;23.406;2022-07-25T06:25:41;9.63;;;7.50;;
7021;SDS011;3552;42.664;23.406;2022-07-25T06:28:09;14.70;;;7.60;;
7021;SDS011;3552;42.664;23.406;2022-07-25T06:30:40;11.43;;;7.40;;
7021;SDS011;3552;42.664;23.406;2022-07-25T06:33:07;13.00;;;7.73;;
7021;SDS011;3552;42.664;23.406;2022-07-25T06:35:36;11.70;;;7.60;;
7021;SDS011;3552;42.664;23.406;2022-07-25T06:38:04;8.73;;;7.33;;
7021;SDS011;3552;42.664;23.406;2022-07-25T06:40:31;8.33;;;7.17;;
7021;SDS011;3552;42.664;23.406;2022-07-25T06:42:58;17.83;;;7.57;;
7021;SDS011;3552;42.664;23.406;2022-07-25T06:45:26;14.07;;;7.33;;
7021;SDS011;3552;42.664;23.406;2022-07-25T06:47:55;8.57;;;7.20;;
7021;SDS011;3552;42.664;23.406;2022-07-25T06:50:24;9.80;;;7.23;;
7021;SDS011;3552;42.664;23.406;2022-07-25T06:52:51;10.73;;;7.60;;
7021;SDS011;3552;42.664;23.406;2022-07-25T06:55:19;13.00;;;7.90;;
7021;SDS011;3552;42.664;23.406;2022-07-25T06:57:47;12.30;;;8.10;;
7021;SDS011;3552;42.664;23.406;2022-07-25T07:00:14;9.87;;;7.63;;
7021;SDS011;3552;42.664;23.406;2022-07-25T07:02:51;10.13;;;7.87;;
7021;SDS011;3552;42.664;23.406;2022-07-25T07:05:26;7.40;;;6.60;;
7021;SDS011;3552;42.664;23.406;2022-07-25T07:07:56;9.83;;;7.80;;
7021;SDS011;3552;42.664;23.406;2022-07-25T07:10:24;9.30;;;8.07;;
7021;SDS011;3552;42.664;23.406;2022-07-25T07:13:01;8.53;;;7.63;;
7021;SDS011;3552;42.664;23.406;2022-07-25T07:15:29;9.17;;;7.93;;
7021;SDS011;3552;42.664;23.406;2022-07-25T07:17:58;8.80;;;8.00;;
7021;SDS011;3552;42.664;23.406;2022-07-25T07:20:27;10.03;;;7.90;;
7021;SDS011;3552;42.664;23.406;2022-07-25T07:22:55;11.73;;;7.83;;
7021;SDS011;3552;42.664;23.406;2022-07-25T07:25:21;9.67;;;7.73;;
7021;SDS011;3552;42.664;23.406;2022-07-25T07:27:50;9.47;;;8.57;;
7021;SDS011;3552;42.664;23.406;2022-07-25T07:30:17;9.53;;;8.10;;
7021;SDS011;3552;42.664;23.406;2022-07-25T07:32:46;9.57;;;8.07;;
7021;SDS011;3552;42.664;23.406;2022-07-25T07:35:13;9.43;;;8.43;;
7021;SDS011;3552;42.664;23.406;2022-07-25T07:37:45;9.57;;;8.27;;
7021;SDS011;3552;42.664;23.406;2022-07-25T07:40:12;11.47;;;7.60;;
7021;SDS011;3552;42.664;23.406;2022-07-25T07:42:40;8.70;;;7.80;;
7021;SDS011;3552;42.664;23.406;2022-07-25T07:45:10;12.93;;;7.97;;
7021;SDS011;3552;42.664;23.406;2022-07-25T07:47:38;10.07;;;8.13;;
7021;SDS011;3552;42.664;23.406;2022-07-25T07:50:06;8.67;;;7.67;;
7021;SDS011;3552;42.664;23.406;2022-07-25T07:52:36;11.13;;;8.00;;
7021;SDS011;3552;42.664;23.406;2022-07-25T07:55:06;14.10;;;8.73;;
7021;SDS011;3552;42.664;23.406;2022-07-25T07:57:51;8.30;;;7.43;;
7021;SDS011;3552;42.664;23.406;2022-07-25T08:00:20;16.80;;;8.27;;
7021;SDS011;3552;42.664;23.406;2022-07-25T08:02:47;8.40;;;7.63;;
7021;SDS011;3552;42.664;23.406;2022-07-25T08:05:20;9.47;;;8.50;;
7021;SDS011;3552;42.664;23.406;2022-07-25T08:07:47;11.77;;;9.37;;
7021;SDS011;3552;42.664;23.406;2022-07-25T08:10:18;8.80;;;7.37;;
7021;SDS011;3552;42.664;23.406;2022-07-25T08:12:47;10.47;;;8.07;;
7021;SDS011;3552;42.664;23.406;2022-07-25T08:15:14;9.43;;;8.00;;
7021;SDS011;3552;42.664;23.406;2022-07-25T08:17:43;8.30;;;7.50;;
7021;SDS011;3552;42.664;23.406;2022-07-25T08:20:10;8.57;;;7.67;;
7021;SDS011;3552;42.664;23.406;2022-07-25T08:22:38;9.30;;;7.83;;
7021;SDS011;3552;42.664;23.406;2022-07-25T08:25:07;10.00;;;7.80;;
7021;SDS011;3552;42.664;23.406;2022-07-25T08:27:37;9.67;;;7.83;;
7021;SDS011;3552;42.664;23.406;2022-07-25T08:30:05;11.07;;;8.50;;
7021;SDS011;3552;42.664;23.406;2022-07-25T08:32:33;11.53;;;8.03;;
7021;SDS011;3552;42.664;23.406;2022-07-25T08:35:12;11.33;;;8.07;;
7021;SDS011;3552;42.664;23.406;2022-07-25T08:37:39;11.23;;;7.90;;
7021;SDS011;3552;42.664;23.406;2022-07-25T08:40:06;14.13;;;8.20;;
7021;SDS011;3552;42.664;23.406;2022-07-25T08:42:34;10.37;;;7.57;;
7021;SDS011;3552;42.664;23.406;2022-07-25T08:45:04;10.73;;;7.30;;
7021;SDS011;3552;42.664;23.406;2022-07-25T08:47:33;8.90;;;8.00;;
7021;SDS011;3552;42.664;23.406;2022-07-25T08:50:01;9.07;;;7.90;;
7021;SDS011;3552;42.664;23.406;2022-07-25T08:52:31;10.90;;;7.53;;
7021;SDS011;3552;42.664;23.406;2022-07-25T08:55:01;9.70;;;8.63;;
7021;SDS011;3552;42.664;23.406;2022-07-25T08:57:31;10.43;;;8.27;;
7021;SDS011;3552;42.664;23.406;2022-07-25T09:00:00;9.63;;;8.10;;
7021;SDS011;3552;42.664;23.406;2022-07-25T09:02:30;8.83;;;7.90;;
7021;SDS011;3552;42.664;23.406;2022-07-25T09:05:00;9.57;;;7.67;;
7021;SDS011;3552;42.664;23.406;2022-07-25T09:07:30;8.30;;;7.53;;
7021;SDS011;3552;42.664;23.406;2022-07-25T09:10:09;8.90;;;8.10;;
7021;SDS011;3552;42.664;23.406;2022-07-25T09:12:37;9.40;;;7.97;;
7021;SDS011;3552;42.664;23.406;2022-07-25T09:15:05;10.50;;;7.80;;
7021;SDS011;3552;42.664;23.406;2022-07-25T09:17:35;10.33;;;7.70;;
7021;SDS011;3552;42.664;23.406;2022-07-25T09:20:02;10.17;;;7.77;;
7021;SDS011;3552;42.664;23.406;2022-07-25T09:22:30;9.40;;;7.70;;
7021;SDS011;3552;42.664;23.406;2022-07-25T09:25:18;11.17;;;8.00;;
7021;SDS011;3552;42.664;23.406;2022-07-25T09:27:46;9.30;;;7.87;;
7021;SDS011;3552;42.664;23.406;2022-07-25T09:30:13;8.20;;;7.47;;
7021;SDS011;3552;42.664;23.406;2022-07-25T09:32:43;8.80;;;7.80;;
7021;SDS011;3552;42.664;23.406;2022-07-25T09:35:10;10.73;;;7.33;;
7021;SDS011;3552;42.664;23.406;2022-07-25T09:37:38;8.77;;;7.27;;
7021;SDS011;3552;42.664;23.406;2022-07-25T09:40:11;8.37;;;7.50;;
7021;SDS011;3552;42.664;23.406;2022-07-25T09:42:40;9.30;;;8.30;;
7021;SDS011;3552;42.664;23.406;2022-07-25T09:45:11;8.57;;;7.77;;
7021;SDS011;3552;42.664;23.406;2022-07-25T09:47:51;11.23;;;7.70;;
7021;SDS011;3552;42.664;23.406;2022-07-25T09:50:20;8.73;;;7.67;;
7021;SDS011;3552;42.664;23.406;2022-07-25T09:52:48;10.17;;;7.57;;
7021;SDS011;3552;42.664;23.406;2022-07-25T09:55:17;9.60;;;7.67;;
7021;SDS011;3552;42.664;23.406;2022-07-25T09:57:45;9.57;;;7.50;;
7021;SDS011;3552;42.664;23.406;2022-07-25T10:00:17;10.33;;;7.30;;
7021;SDS011;3552;42.664;23.406;2022-07-25T10:02:48;9.33;;;7.47;;
7021;SDS011;3552;42.664;23.406;2022-07-25T10:05:27;8.37;;;7.57;;
7021;SDS011;3552;42.664;23.406;2022-07-25T10:07:57;8.13;;;7.30;;
7021;SDS011;3552;42.664;23.406;2022-07-25T10:10:27;10.37;;;7.10;;
7021;SDS011;3552;42.664;23.406;2022-07-25T10:13:03;11.87;;;9.13;;
7021;SDS011;3552;42.664;23.406;2022-07-25T10:15:39;9.30;;;6.67;;
7021;SDS011;3552;42.664;23.406;2022-07-25T10:18:09;7.40;;;6.53;;
7021;SDS011;3552;42.664;23.406;2022-07-25T10:20:37;7.90;;;6.73;;
7021;SDS011;3552;42.664;23.406;2022-07-25T10:23:15;7.30;;;6.50;;
7021;SDS011;3552;42.664;23.406;2022-07-25T10:25:44;8.87;;;7.00;;
7021;SDS011;3552;42.664;23.406;2022-07-25T10:28:14;12.33;;;7.03;;
7021;SDS011;3552;42.664;23.406;2022-07-25T10:30:44;10.53;;;6.77;;
7021;SDS011;3552;42.664;23.406;2022-07-25T10:33:14;11.47;;;6.77;;
7021;SDS011;3552;42.664;23.406;2022-07-25T10:35:45;7.03;;;6.40;;
7021;SDS011;3552;42.664;23.406;2022-07-25T10:38:12;7.40;;;6.57;;
7021;SDS011;3552;42.664;23.406;2022-07-25T10:40:40;7.60;;;6.80;;
7021;SDS011;3552;42.664;23.406;2022-07-25T10:43:10;7.10;;;6.40;;
7021;SDS011;3552;42.664;23.406;2022-07-25T10:45:42;11.77;;;6.90;;
7021;SDS011;3552;42.664;23.406;2022-07-25T10:48:21;8.13;;;6.03;;
7021;SDS011;3552;42.664;23.406;2022-07-25T10:50:52;8.07;;;6.60;;
7021;SDS011;3552;42.664;23.406;2022-07-25T10:53:26;10.13;;;6.80;;
7021;SDS011;3552;42.664;23.406;2022-07-25T10:55:56;6.50;;;5.87;;
7021;SDS011;3552;42.664;23.406;2022-07-25T10:58:23;6.27;;;5.67;;
7021;SDS011;3552;42.664;23.406;2022-07-25T11:00:52;8.20;;;6.07;;
7021;SDS011;3552;42.664;23.406;2022-07-25T11:03:23;7.57;;;6.43;;
7021;SDS011;3552;42.664;23.406;2022-07-25T11:05:57;9.60;;;6.23;;
7021;SDS011;3552;42.664;23.406;2022-07-25T11:11:07;6.07;;;5.57;;
7021;SDS011;3552;42.664;23.406;2022-07-25T11:13:35;6.60;;;6.00;;
7021;SDS011;3552;42.664;23.406;2022-07-25T11:16:04;6.73;;;6.03;;
7021;SDS011;3552;42.664;23.406;2022-07-25T11:18:35;6.97;;;6.00;;
7021;SDS011;3552;42.664;23.406;2022-07-25T11:21:05;8.33;;;5.73;;
7021;SDS011;3552;42.664;23.406;2022-07-25T11:23:34;6.97;;;4.87;;
7021;SDS011;3552;42.664;23.406;2022-07-25T11:26:02;6.80;;;6.03;;
7021;SDS011;3552;42.664;23.406;2022-07-25T11:28:37;7.67;;;5.80;;
7021;SDS011;3552;42.664;23.406;2022-07-25T11:31:09;9.77;;;6.03;;
7021;SDS011;3552;42.664;23.406;2022-07-25T11:33:40;6.60;;;6.00;;
7021;SDS011;3552;42.664;23.406;2022-07-25T11:36:09;6.23;;;5.60;;
7021;SDS011;3552;42.664;23.406;2022-07-25T11:38:38;7.57;;;6.20;;
7021;SDS011;3552;42.664;23.406;2022-07-25T11:41:06;16.37;;;7.27;;
7021;SDS011;3552;42.664;23.406;2022-07-25T11:43:34;10.47;;;6.53;;
7021;SDS011;3552;42.664;23.406;2022-07-25T11:46:01;6.67;;;5.70;;
7021;SDS011;3552;42.664;23.406;2022-07-25T11:48:31;7.07;;;5.90;;
7021;SDS011;3552;42.664;23.406;2022-07-25T11:51:09;6.60;;;6.00;;
7021;SDS011;3552;42.664;23.406;2022-07-25T11:53:40;6.40;;;5.77;;
7021;SDS011;3552;42.664;23.406;2022-07-25T11:56:12;7.43;;;5.00;;
7021;SDS011;3552;42.664;23.406;2022-07-25T11:58:41;6.70;;;5.70;;
7021;SDS011;3552;42.664;23.406;2022-07-25T12:01:12;6.53;;;5.63;;
7021;SDS011;3552;42.664;23.406;2022-07-25T12:03:40;6.73;;;5.60;;
7021;SDS011;3552;42.664;23.406;2022-07-25T12:06:12;16.13;;;6.17;;
7021;SDS011;3552;42.664;23.406;2022-07-25T12:08:40;7.33;;;5.40;;
7021;SDS011;3552;42.664;23.406;2022-07-25T12:11:18;7.13;;;6.00;;
7021;SDS011;3552;42.664;23.406;2022-07-25T12:13:47;7.67;;;5.60;;
7021;SDS011;3552;42.664;23.406;2022-07-25T12:16:18;6.40;;;5.80;;
7021;SDS011;3552;42.664;23.406;2022-07-25T12:18:45;6.87;;;6.23;;
7021;SDS011;3552;42.664;23.406;2022-07-25T12:21:15;7.30;;;5.63;;
7021;SDS011;3552;42.664;23.406;2022-07-25T12:23:43;7.40;;;5.30;;
7021;SDS011;3552;42.664;23.406;2022-07-25T12:26:11;8.37;;;5.80;;
7021;SDS011;3552;42.664;23.406;2022-07-25T12:28:39;6.77;;;6.07;;
7021;SDS011;3552;42.664;23.406;2022-07-25T12:31:06;7.43;;;6.27;;
7021;SDS011;3552;42.664;23.406;2022-07-25T12:33:34;6.80;;;6.10;;
7021;SDS011;3552;42.664;23.406;2022-07-25T12:36:02;6.13;;;5.53;;
7021;SDS011;3552;42.664;23.406;2022-07-25T12:38:32;7.80;;;5.83;;
7021;SDS011;3552;42.664;23.406;2022-07-25T12:40:59;6.50;;;5.90;;
7021;SDS011;3552;42.664;23.406;2022-07-25T12:43:27;6.40;;;5.20;;
7021;SDS011;3552;42.664;23.406;2022-07-25T12:46:04;6.17;;;5.67;;
7021;SDS011;3552;42.664;23.406;2022-07-25T12:48:33;6.60;;;5.70;;
7021;SDS011;3552;42.664;23.406;2022-07-25T12:51:01;6.40;;;5.87;;
7021;SDS011;3552;42.664;23.406;2022-07-25T12:53:31;6.27;;;5.70;;
7021;SDS011;3552;42.664;23.406;2022-07-25T12:55:59;8.43;;;5.77;;
7021;SDS011;3552;42.664;23.406;2022-07-25T12:58:27;6.27;;;5.67;;
7021;SDS011;3552;42.664;23.406;2022-07-25T13:00:56;5.90;;;5.40;;
7021;SDS011;3552;42.664;23.406;2022-07-25T13:03:24;6.43;;;5.63;;
7021;SDS011;3552;42.664;23.406;2022-07-25T13:05:52;6.93;;;5.40;;
7021;SDS011;3552;42.664;23.406;2022-07-25T13:08:20;11.20;;;5.83;;
7021;SDS011;3552;42.664;23.406;2022-07-25T13:10:50;6.23;;;5.37;;
7021;SDS011;3552;42.664;23.406;2022-07-25T13:13:20;5.57;;;5.10;;
7021;SDS011;3552;42.664;23.406;2022-07-25T13:15:47;7.60;;;5.23;;
7021;SDS011;3552;42.664;23.406;2022-07-25T13:18:22;5.60;;;5.10;;
7021;SDS011;3552;42.664;23.406;2022-07-25T13:20:51;6.00;;;5.40;;
7021;SDS011;3552;42.664;23.406;2022-07-25T13:23:21;6.73;;;6.00;;
7021;SDS011;3552;42.664;23.406;2022-07-25T13:25:52;7.80;;;6.07;;
7021;SDS011;3552;42.664;23.406;2022-07-25T13:28:19;8.43;;;5.73;;
7021;SDS011;3552;42.664;23.406;2022-07-25T13:30:48;9.60;;;5.67;;
7021;SDS011;3552;42.664;23.406;2022-07-25T13:33:15;5.57;;;5.03;;
7021;SDS011;3552;42.664;23.406;2022-07-25T13:35:43;6.63;;;5.13;;
7021;SDS011;3552;42.664;23.406;2022-07-25T13:38:11;8.47;;;5.40;;
7021;SDS011;3552;42.664;23.406;2022-07-25T13:40:38;10.07;;;5.40;;
7021;SDS011;3552;42.664;23.406;2022-07-25T13:43:08;6.03;;;5.53;;
7021;SDS011;3552;42.664;23.406;2022-07-25T13:45:38;6.90;;;5.47;;
7021;SDS011;3552;42.664;23.406;2022-07-25T13:48:08;8.50;;;5.67;;
7021;SDS011;3552;42.664;23.406;2022-07-25T13:50:35;6.13;;;5.43;;
7021;SDS011;3552;42.664;23.406;2022-07-25T13:53:03;6.10;;;5.50;;
7021;SDS011;3552;42.664;23.406;2022-07-25T13:55:31;6.33;;;5.63;;
7021;SDS011;3552;42.664;23.406;2022-07-25T13:57:59;8.20;;;5.70;;
7021;SDS011;3552;42.664;23.406;2022-07-25T14:00:28;7.10;;;6.20;;
7021;SDS011;3552;42.664;23.406;2022-07-25T14:02:55;8.63;;;6.90;;
7021;SDS011;3552;42.664;23.406;2022-07-25T14:05:22;7.13;;;6.10;;
7021;SDS011;3552;42.664;23.406;2022-07-25T14:07:50;10.30;;;6.60;;
7021;SDS011;3552;42.664;23.406;2022-07-25T14:10:17;8.93;;;6.43;;
7021;SDS011;3552;42.664;23.406;2022-07-25T14:12:45;8.77;;;6.40;;
7021;SDS011;3552;42.664;23.406;2022-07-25T14:15:12;10.83;;;6.73;;
7021;SDS011;3552;42.664;23.406;2022-07-25T14:17:41;7.90;;;6.77;;
7021;SDS011;3552;42.664;23.406;2022-07-25T14:20:08;9.33;;;6.40;;
7021;SDS011;3552;42.664;23.406;2022-07-25T14:22:36;8.60;;;6.97;;
7021;SDS011;3552;42.664;23.406;2022-07-25T14:25:04;10.60;;;6.97;;
7021;SDS011;3552;42.664;23.406;2022-07-25T14:27:32;8.43;;;6.57;;
7021;SDS011;3552;42.664;23.406;2022-07-25T14:30:01;8.97;;;6.63;;
7021;SDS011;3552;42.664;23.406;2022-07-25T14:32:37;7.40;;;6.47;;
7021;SDS011;3552;42.664;23.406;2022-07-25T14:35:10;16.57;;;7.00;;
7021;SDS011;3552;42.664;23.406;2022-07-25T14:37:40;9.20;;;7.00;;
7021;SDS011;3552;42.664;23.406;2022-07-25T14:40:08;7.73;;;6.90;;
7021;SDS011;3552;42.664;23.406;2022-07-25T14:42:38;7.97;;;7.27;;
7021;SDS011;3552;42.664;23.406;2022-07-25T14:45:07;12.80;;;8.13;;
7021;SDS011;3552;42.664;23.406;2022-07-25T14:47:34;8.70;;;7.73;;
7021;SDS011;3552;42.664;23.406;2022-07-25T14:50:01;10.27;;;6.90;;
7021;SDS011;3552;42.664;23.406;2022-07-25T14:52:30;9.67;;;7.17;;
7021;SDS011;3552;42.664;23.406;2022-07-25T14:54:58;11.97;;;7.87;;
7021;SDS011;3552;42.664;23.406;2022-07-25T14:57:30;8.87;;;7.97;;
7021;SDS011;3552;42.664;23.406;2022-07-25T14:59:58;9.50;;;7.27;;
7021;SDS011;3552;42.664;23.406;2022-07-25T15:02:27;7.90;;;7.20;;